createdAt,value
2023-04-30T00:01:42.316Z,5.50
2023-04-30T00:04:45.447Z,7.80
2023-04-30T00:07:48.140Z,7.23
2023-04-30T00:10:51.834Z,8.13
2023-04-30T00:13:54.535Z,7.28
2023-04-30T00:16:57.298Z,6.07
2023-04-30T00:19:59.986Z,7.10
2023-04-30T00:23:02.801Z,7.33
2023-04-30T00:26:05.326Z,6.82
2023-04-30T00:29:08.265Z,7.03
2023-04-30T00:32:10.864Z,7.37
2023-04-30T00:35:13.745Z,7.40
2023-04-30T00:38:16.379Z,7.77
2023-04-30T00:41:21.324Z,7.62
2023-04-30T00:44:23.851Z,6.45
2023-04-30T00:47:26.778Z,5.43
2023-04-30T00:50:29.703Z,5.72
2023-04-30T00:53:32.515Z,5.73
2023-04-30T00:56:35.138Z,3.95
2023-04-30T00:59:38.722Z,2.90
2023-04-30T01:02:41.805Z,4.05
2023-04-30T01:05:44.629Z,4.75
2023-04-30T01:08:47.634Z,3.47
2023-04-30T01:11:56.329Z,3.83
2023-04-30T01:15:08.706Z,5.82
2023-04-30T01:18:12.522Z,4.43
2023-04-30T01:21:15.717Z,4.68
2023-04-30T01:24:29.147Z,4.50
2023-04-30T01:27:58.372Z,5.35
2023-04-30T01:31:01.310Z,4.00
2023-04-30T01:34:04.621Z,4.50
2023-04-30T01:37:25.060Z,4.62
2023-04-30T01:41:00.116Z,3.17
2023-04-30T01:44:08.771Z,6.35
2023-04-30T01:47:37.466Z,5.35
2023-04-30T01:50:53.107Z,4.87
2023-04-30T01:53:58.434Z,5.62
2023-04-30T01:57:07.209Z,4.30
2023-04-30T02:00:11.701Z,3.92
2023-04-30T02:03:15.893Z,3.55
2023-04-30T02:06:18.938Z,3.17
2023-04-30T02:09:24.135Z,5.37
2023-04-30T02:12:27.823Z,4.03
2023-04-30T02:15:30.308Z,3.83
2023-04-30T02:18:33.071Z,3.72
2023-04-30T02:21:35.764Z,5.82
2023-04-30T02:24:38.675Z,4.57
2023-04-30T02:27:41.263Z,3.80
2023-04-30T02:30:46.321Z,5.90
2023-04-30T02:33:49.205Z,5.95
2023-04-30T02:36:52.165Z,6.00
2023-04-30T02:39:54.892Z,4.45
2023-04-30T02:42:57.877Z,4.20
2023-04-30T02:46:00.443Z,3.72
2023-04-30T02:49:03.382Z,5.20
2023-04-30T02:52:07.218Z,4.35
2023-04-30T02:55:10.255Z,5.10
2023-04-30T02:58:13.608Z,5.40
2023-04-30T03:01:16.580Z,5.80
2023-04-30T03:04:19.175Z,5.90
2023-04-30T03:07:22.014Z,6.20
2023-04-30T03:10:25.537Z,5.10
2023-04-30T03:13:28.289Z,4.50
2023-04-30T03:16:31.312Z,5.47
2023-04-30T03:19:34.337Z,6.60
2023-04-30T03:22:36.898Z,7.37
2023-04-30T03:25:39.650Z,7.68
2023-04-30T03:28:42.178Z,6.80
2023-04-30T03:31:45.119Z,8.68
2023-04-30T03:34:47.681Z,8.55
2023-04-30T03:37:50.578Z,8.05
2023-04-30T03:40:53.148Z,8.25
2023-04-30T03:43:58.431Z,6.77
2023-04-30T03:47:00.901Z,6.35
2023-04-30T03:50:04.992Z,7.53
2023-04-30T03:53:09.284Z,8.00
2023-04-30T03:56:13.759Z,8.32
2023-04-30T03:59:20.327Z,7.20
2023-04-30T04:02:23.506Z,5.68
2023-04-30T04:05:27.097Z,6.97
2023-04-30T04:08:29.592Z,9.55
2023-04-30T04:11:32.387Z,9.25
2023-04-30T04:14:35.060Z,8.37
2023-04-30T04:17:38.194Z,8.82
2023-04-30T04:23:44.295Z,7.15
2023-04-30T04:26:48.106Z,9.75
2023-04-30T04:29:52.347Z,10.83
2023-04-30T04:32:55.938Z,9.10
2023-04-30T04:35:59.309Z,6.87
2023-04-30T04:39:04.864Z,7.43
2023-04-30T04:42:07.941Z,7.93
2023-04-30T04:45:11.243Z,8.67
2023-04-30T04:48:15.125Z,8.45
2023-04-30T04:51:17.629Z,9.60
2023-04-30T04:54:21.310Z,10.57
2023-04-30T04:57:24.320Z,6.93
2023-04-30T05:00:27.561Z,8.23
2023-04-30T05:03:31.233Z,8.27
2023-04-30T05:06:34.414Z,8.50
2023-04-30T05:09:37.051Z,9.27
2023-04-30T05:12:39.886Z,8.50
2023-04-30T05:15:42.448Z,9.13
2023-04-30T05:18:45.264Z,10.68
2023-04-30T05:21:47.760Z,8.30
2023-04-30T05:24:53.070Z,8.95
2023-04-30T05:27:56.441Z,8.88
2023-04-30T05:30:59.514Z,11.13
2023-04-30T05:34:02.125Z,6.60
2023-04-30T05:37:04.884Z,9.75
2023-04-30T05:40:08.139Z,9.35
2023-04-30T05:43:12.871Z,9.73
2023-04-30T05:46:15.641Z,11.30
2023-04-30T05:49:18.449Z,10.82
2023-04-30T05:52:21.019Z,8.10
2023-04-30T05:55:23.835Z,8.88
2023-04-30T05:58:26.453Z,8.50
2023-04-30T06:01:29.435Z,10.80
2023-04-30T06:04:32.379Z,10.90
2023-04-30T06:07:34.896Z,7.62
2023-04-30T06:10:38.254Z,9.32
2023-04-30T06:13:40.966Z,10.25
2023-04-30T06:16:47.239Z,10.03
2023-04-30T06:19:49.820Z,8.95
2023-04-30T06:22:52.808Z,9.55
2023-04-30T06:25:55.474Z,9.43
2023-04-30T06:28:58.364Z,9.02
2023-04-30T06:32:01.323Z,7.90
2023-04-30T06:35:05.330Z,9.57
2023-04-30T06:38:07.857Z,7.93
2023-04-30T06:41:10.732Z,7.93
2023-04-30T06:44:13.564Z,10.38
2023-04-30T06:47:16.790Z,5.93
2023-04-30T06:50:21.420Z,8.50
2023-04-30T06:53:24.172Z,7.70
2023-04-30T06:56:26.760Z,6.22
2023-04-30T06:59:30.107Z,8.32
2023-04-30T07:02:33.007Z,5.97
2023-04-30T07:05:35.877Z,5.78
2023-04-30T07:08:41.125Z,7.30
2023-04-30T07:11:44.362Z,5.55
2023-04-30T07:14:46.854Z,5.72
2023-04-30T07:17:49.841Z,6.30
2023-04-30T07:20:52.441Z,5.12
2023-04-30T07:23:55.428Z,5.65
2023-04-30T07:27:02.744Z,5.65
2023-04-30T07:30:06.396Z,5.37
2023-04-30T07:33:09.683Z,4.23
2023-04-30T07:36:12.936Z,3.45
2023-04-30T07:39:15.920Z,3.72
2023-04-30T07:42:18.927Z,4.65
2023-04-30T07:45:21.400Z,4.22
2023-04-30T07:48:24.239Z,4.30
2023-04-30T07:51:27.108Z,2.65
2023-04-30T07:54:30.327Z,3.55
2023-04-30T07:57:32.826Z,2.35
2023-04-30T08:00:35.757Z,4.00
2023-04-30T08:03:38.711Z,3.20
2023-04-30T08:06:41.621Z,3.03
2023-04-30T08:09:44.434Z,3.15
2023-04-30T08:12:46.993Z,3.83
2023-04-30T08:15:49.780Z,4.25
2023-04-30T08:18:52.271Z,3.77
2023-04-30T08:21:55.056Z,4.32
2023-04-30T08:24:57.761Z,3.85
2023-04-30T08:28:00.749Z,4.15
2023-04-30T08:31:03.347Z,3.83
2023-04-30T08:34:06.759Z,2.87
2023-04-30T08:37:09.314Z,2.67
2023-04-30T08:40:12.435Z,2.65
2023-04-30T08:43:15.649Z,3.47
2023-04-30T08:46:18.526Z,2.78
2023-04-30T08:49:25.167Z,2.67
2023-04-30T08:52:29.235Z,2.75
2023-04-30T08:55:34.222Z,2.33
2023-04-30T08:58:37.724Z,2.37
2023-04-30T09:01:41.568Z,3.12
2023-04-30T09:04:44.968Z,2.07
2023-04-30T09:10:53.481Z,2.67
2023-04-30T09:14:00.559Z,2.40
2023-04-30T09:17:03.338Z,1.48
2023-04-30T09:20:09.121Z,2.43
2023-04-30T09:23:11.961Z,2.08
2023-04-30T09:26:22.340Z,2.05
2023-04-30T09:29:36.648Z,1.55
2023-04-30T09:32:55.272Z,2.65
2023-04-30T09:35:58.156Z,2.37
2023-04-30T09:39:10.871Z,2.30
2023-04-30T09:42:14.985Z,2.15
2023-04-30T09:45:17.953Z,2.35
2023-04-30T09:48:25.522Z,2.37
2023-04-30T09:51:28.580Z,2.53
2023-04-30T09:54:32.286Z,2.42
2023-04-30T09:57:36.994Z,2.67
2023-04-30T10:00:40.331Z,2.20
2023-04-30T10:03:43.504Z,2.03
2023-04-30T10:06:46.560Z,1.73
2023-04-30T10:10:24.728Z,2.10
2023-04-30T10:13:32.581Z,1.35
2023-04-30T10:16:55.174Z,1.75
2023-04-30T10:20:03.721Z,2.33
2023-04-30T10:23:07.324Z,2.40
2023-04-30T10:26:12.977Z,1.80
2023-04-30T10:29:17.700Z,1.80
2023-04-30T10:32:21.540Z,2.00
2023-04-30T10:35:30.930Z,1.30
2023-04-30T10:38:34.413Z,1.70
2023-04-30T10:41:37.271Z,1.52
2023-04-30T10:44:40.168Z,1.73
2023-04-30T10:47:45.607Z,1.67
2023-04-30T10:50:51.142Z,1.55
2023-04-30T10:53:54.403Z,1.20
2023-04-30T10:57:14.481Z,1.33
2023-04-30T11:00:21.029Z,2.12
2023-04-30T11:03:25.085Z,1.83
2023-04-30T11:06:56.514Z,2.12
2023-04-30T11:09:59.112Z,1.70
2023-04-30T11:13:10.250Z,2.10
2023-04-30T11:16:12.943Z,2.28
2023-04-30T11:19:16.287Z,1.48
2023-04-30T11:22:22.076Z,2.40
2023-04-30T11:25:25.013Z,1.60
2023-04-30T11:28:28.265Z,1.65
2023-04-30T11:31:35.170Z,2.50
2023-04-30T11:34:37.901Z,1.37
2023-04-30T11:37:44.730Z,2.62
2023-04-30T11:40:49.008Z,2.17
2023-04-30T11:43:51.791Z,2.58
2023-04-30T11:46:54.907Z,2.05
2023-04-30T11:49:57.706Z,1.48
2023-04-30T11:53:05.452Z,1.90
2023-04-30T11:56:08.838Z,2.40
2023-04-30T11:59:11.505Z,2.60
2023-04-30T12:02:16.148Z,2.58
2023-04-30T12:05:23.929Z,2.33
2023-04-30T12:08:26.810Z,2.62
2023-04-30T12:11:31.825Z,2.33
2023-04-30T12:14:36.678Z,2.10
2023-04-30T12:17:39.552Z,1.85
2023-04-30T12:20:42.408Z,1.50
2023-04-30T12:23:45.295Z,1.37
2023-04-30T12:26:48.200Z,2.00
2023-04-30T12:29:51.805Z,1.25
2023-04-30T12:32:56.753Z,1.65
2023-04-30T12:35:59.686Z,1.77
2023-04-30T12:39:18.567Z,1.80
2023-04-30T12:42:21.713Z,1.60
2023-04-30T12:45:46.724Z,1.77
2023-04-30T12:48:49.878Z,1.35
2023-04-30T12:52:04.192Z,2.10
2023-04-30T12:55:21.750Z,1.90
2023-04-30T12:58:30.864Z,1.50
2023-04-30T13:01:45.159Z,1.85
2023-04-30T13:04:47.925Z,1.75
2023-04-30T13:07:55.799Z,1.33
2023-04-30T13:10:58.414Z,2.08
2023-04-30T13:14:01.281Z,2.10
2023-04-30T13:17:07.079Z,1.92
2023-04-30T13:20:10.632Z,2.10
2023-04-30T13:23:13.543Z,2.08
2023-04-30T13:26:16.677Z,2.12
2023-04-30T13:29:22.114Z,1.13
2023-04-30T13:32:25.168Z,1.70
2023-04-30T13:35:28.551Z,1.90
2023-04-30T13:38:31.418Z,1.55
2023-04-30T13:41:34.219Z,1.80
2023-04-30T13:44:37.092Z,1.57
2023-04-30T13:47:39.867Z,1.50
2023-04-30T13:50:42.699Z,1.92
2023-04-30T13:53:45.471Z,1.85
2023-04-30T13:56:48.825Z,1.62
2023-04-30T13:59:51.736Z,1.67
2023-04-30T14:02:54.916Z,1.80
2023-04-30T14:05:58.410Z,2.70
2023-04-30T14:09:01.153Z,2.40
2023-04-30T14:12:04.024Z,2.22
2023-04-30T14:15:07.080Z,2.27
2023-04-30T14:18:09.969Z,2.10
2023-04-30T14:21:12.791Z,1.60
2023-04-30T14:24:16.223Z,1.92
2023-04-30T14:27:18.883Z,1.85
2023-04-30T14:30:21.935Z,1.93
2023-04-30T14:33:25.540Z,1.60
2023-04-30T14:36:28.421Z,2.33
2023-04-30T14:39:31.237Z,1.70
2023-04-30T14:42:34.249Z,2.15
2023-04-30T14:45:37.313Z,1.37
2023-04-30T14:48:40.222Z,1.77
2023-04-30T14:51:42.876Z,1.37
2023-04-30T14:54:46.003Z,2.10
2023-04-30T14:57:48.501Z,1.55
2023-04-30T15:00:51.893Z,1.50
2023-04-30T15:03:54.655Z,2.30
2023-04-30T15:06:57.509Z,1.77
2023-04-30T15:10:00.331Z,1.70
2023-04-30T15:13:03.685Z,2.08
2023-04-30T15:16:07.208Z,1.80
2023-04-30T15:19:10.317Z,1.80
2023-04-30T15:22:13.190Z,1.98
2023-04-30T15:25:16.108Z,1.70
2023-04-30T15:28:19.239Z,1.92
2023-04-30T15:31:22.080Z,2.07
2023-04-30T15:34:24.643Z,1.50
2023-04-30T15:37:27.518Z,1.65
2023-04-30T15:40:30.847Z,1.58
2023-04-30T15:43:33.718Z,1.42
2023-04-30T15:46:36.451Z,1.40
2023-04-30T15:49:39.340Z,1.30
2023-04-30T15:52:41.843Z,1.15
2023-04-30T15:55:46.601Z,1.50
2023-04-30T15:58:49.344Z,1.55
2023-04-30T16:01:52.661Z,1.70
2023-04-30T16:04:55.562Z,1.10
2023-04-30T16:07:58.076Z,1.30
2023-04-30T16:11:01.678Z,1.30
2023-04-30T16:14:04.260Z,1.80
2023-04-30T16:17:07.156Z,1.20
2023-04-30T16:20:11.536Z,1.50
2023-04-30T16:23:15.021Z,2.03
2023-04-30T16:26:17.833Z,1.60
2023-04-30T16:29:20.721Z,1.33
2023-04-30T16:32:23.228Z,1.63
2023-04-30T16:35:26.745Z,2.45
2023-04-30T16:38:29.409Z,1.83
2023-04-30T16:41:32.233Z,1.73
2023-04-30T16:44:35.150Z,2.47
2023-04-30T16:47:38.067Z,1.40
2023-04-30T16:50:41.287Z,1.92
2023-04-30T16:53:44.119Z,1.27
2023-04-30T16:56:46.776Z,1.50
2023-04-30T16:59:49.698Z,1.50
2023-04-30T17:02:53.246Z,1.17
2023-04-30T17:05:56.667Z,1.70
2023-04-30T17:08:59.434Z,1.40
2023-04-30T17:12:02.509Z,1.20
2023-04-30T17:15:05.727Z,1.65
2023-04-30T17:18:09.707Z,0.90
2023-04-30T17:21:12.562Z,1.33
2023-04-30T17:24:15.639Z,1.30
2023-04-30T17:27:18.247Z,1.75
2023-04-30T17:30:21.911Z,1.30
2023-04-30T17:33:26.591Z,1.33
2023-04-30T17:36:30.286Z,1.30
2023-04-30T17:39:33.149Z,1.60
2023-04-30T17:42:36.003Z,1.50
2023-04-30T17:45:38.741Z,1.60
2023-04-30T17:48:41.892Z,1.93
2023-04-30T17:51:44.575Z,1.80
2023-04-30T17:54:48.812Z,1.50
2023-04-30T17:57:51.472Z,1.75
2023-04-30T18:00:56.488Z,2.25
2023-04-30T18:04:00.166Z,1.57
2023-04-30T18:07:02.775Z,2.10
2023-04-30T18:10:06.277Z,2.28
2023-04-30T18:13:10.279Z,1.98
2023-04-30T18:16:14.300Z,2.05
2023-04-30T18:19:18.131Z,1.80
2023-04-30T18:22:21.411Z,1.90
2023-04-30T18:25:23.915Z,1.98
2023-04-30T18:28:26.871Z,2.12
2023-04-30T18:31:29.419Z,1.80
2023-04-30T18:34:32.621Z,1.63
2023-04-30T18:37:35.243Z,2.00
2023-04-30T18:40:38.396Z,1.77
2023-04-30T18:43:42.578Z,2.05
2023-04-30T18:46:45.420Z,1.90
2023-04-30T18:49:48.004Z,1.80
2023-04-30T18:52:50.999Z,1.80
2023-04-30T18:55:53.750Z,1.80
2023-04-30T18:58:56.692Z,1.90
2023-04-30T19:01:59.294Z,2.40
2023-04-30T19:05:02.575Z,2.33
2023-04-30T19:08:05.148Z,1.75
2023-04-30T19:11:08.615Z,2.15
2023-04-30T19:14:11.711Z,2.10
2023-04-30T19:17:15.228Z,2.10
2023-04-30T19:20:18.187Z,4.53
2023-04-30T19:23:21.261Z,6.80
2023-04-30T19:26:25.939Z,4.37
2023-04-30T19:29:29.796Z,9.27
2023-04-30T19:32:33.257Z,3.47
2023-04-30T19:35:36.359Z,2.90
2023-04-30T19:38:39.182Z,3.00
2023-04-30T19:41:42.260Z,3.03
2023-04-30T19:44:45.122Z,3.17
2023-04-30T19:47:49.201Z,2.60
2023-04-30T19:50:55.757Z,2.37
2023-04-30T19:54:00.459Z,2.67
2023-04-30T19:57:03.602Z,3.10
2023-04-30T20:00:07.178Z,3.92
2023-04-30T20:03:09.995Z,5.18
2023-04-30T20:06:13.432Z,3.57
2023-04-30T20:09:16.018Z,2.72
2023-04-30T20:12:18.918Z,4.37
2023-04-30T20:15:22.627Z,9.15
2023-04-30T20:18:25.545Z,5.05
2023-04-30T20:21:29.169Z,4.07
2023-04-30T20:24:32.876Z,3.30
2023-04-30T20:27:35.521Z,3.72
2023-04-30T20:30:39.679Z,3.05
2023-04-30T20:33:42.718Z,2.72
2023-04-30T20:36:45.973Z,2.40
2023-04-30T20:39:48.726Z,2.40
2023-04-30T20:42:52.505Z,3.00
2023-04-30T20:46:00.524Z,5.20
2023-04-30T20:49:05.298Z,2.97
2023-04-30T20:52:08.182Z,3.40
2023-04-30T20:55:11.162Z,5.35
2023-04-30T20:58:13.701Z,7.53
2023-04-30T21:01:16.671Z,4.82
2023-04-30T21:04:19.312Z,3.35
2023-04-30T21:07:22.112Z,3.10
2023-04-30T21:10:24.687Z,3.50
2023-04-30T21:13:28.600Z,4.65
2023-04-30T21:16:31.340Z,3.97
2023-04-30T21:19:34.569Z,2.97
2023-04-30T21:22:39.248Z,4.00
2023-04-30T21:25:42.034Z,3.33
2023-04-30T21:28:45.277Z,3.60
2023-04-30T21:31:48.052Z,3.20
2023-04-30T21:34:50.500Z,3.62
2023-04-30T21:37:53.676Z,7.20
2023-04-30T21:40:56.270Z,6.70
2023-04-30T21:43:59.026Z,8.40
2023-04-30T21:47:01.596Z,7.05
2023-04-30T21:50:05.798Z,7.12
2023-04-30T21:53:08.443Z,5.40
2023-04-30T21:56:11.796Z,6.37
2023-04-30T21:59:14.757Z,4.72
2023-04-30T22:02:23.350Z,4.47
2023-04-30T22:05:27.439Z,5.00
2023-04-30T22:08:29.930Z,4.70
2023-04-30T22:11:32.800Z,5.15
2023-04-30T22:14:35.455Z,5.80
2023-04-30T22:17:38.430Z,6.75
2023-04-30T22:20:41.152Z,8.10
2023-04-30T22:23:44.057Z,6.27
2023-04-30T22:26:46.531Z,6.37
2023-04-30T22:29:50.556Z,46.22
2023-04-30T22:32:56.733Z,46.70
2023-04-30T22:36:00.094Z,20.25
2023-04-30T22:39:03.771Z,12.47
2023-04-30T22:42:07.143Z,21.02
2023-04-30T22:45:10.368Z,14.70
2023-04-30T22:48:13.434Z,9.63
2023-04-30T22:51:15.982Z,6.40
2023-04-30T22:54:19.441Z,4.70
2023-04-30T22:57:25.532Z,4.93
2023-04-30T23:00:28.639Z,5.45
2023-04-30T23:03:31.574Z,5.85
2023-04-30T23:06:35.427Z,5.37
2023-04-30T23:09:38.392Z,5.17
2023-04-30T23:12:41.349Z,5.28
2023-04-30T23:15:44.833Z,5.12
2023-04-30T23:18:48.949Z,4.62
2023-04-30T23:21:51.976Z,4.32
2023-04-30T23:24:57.107Z,4.40
2023-04-30T23:28:00.235Z,4.60
2023-04-30T23:31:03.088Z,6.25
2023-04-30T23:34:06.159Z,7.22
2023-04-30T23:37:08.985Z,5.68
2023-04-30T23:40:11.838Z,5.17
2023-04-30T23:43:14.609Z,5.53
2023-04-30T23:46:17.343Z,5.70
2023-04-30T23:49:24.375Z,5.03
2023-04-30T23:52:26.968Z,4.78
2023-04-30T23:55:30.194Z,4.10
2023-04-30T23:58:32.739Z,4.62
